createdAt,value
2023-03-11T00:01:27.108Z,96502.00
2023-03-11T00:03:54.902Z,96500.00
2023-03-11T00:06:22.553Z,96511.00
2023-03-11T00:08:52.243Z,96509.00
2023-03-11T00:11:22.500Z,96511.00
2023-03-11T00:13:50.253Z,96513.00
2023-03-11T00:16:19.450Z,96521.00
2023-03-11T00:18:47.140Z,96524.00
2023-03-11T00:21:17.192Z,96521.00
2023-03-11T00:23:45.075Z,96534.00
2023-03-11T00:26:12.870Z,96542.00
2023-03-11T00:28:40.944Z,96542.00
2023-03-11T00:31:08.852Z,96544.00
2023-03-11T00:33:38.009Z,96550.00
2023-03-11T00:36:07.053Z,96563.00
2023-03-11T00:38:34.880Z,96550.00
2023-03-11T00:41:02.708Z,96557.00
2023-03-11T00:43:30.456Z,96560.00
2023-03-11T00:45:58.336Z,96575.00
2023-03-11T00:48:26.128Z,96577.00
2023-03-11T00:50:55.114Z,96579.00
2023-03-11T00:53:22.777Z,96587.00
2023-03-11T00:55:50.469Z,96599.00
2023-03-11T00:58:18.120Z,96595.00
2023-03-11T01:00:45.789Z,96593.00
2023-03-11T01:03:13.590Z,96593.00
2023-03-11T01:05:41.623Z,96615.00
2023-03-11T01:08:10.763Z,96614.00
2023-03-11T01:10:38.733Z,96617.00
2023-03-11T01:13:06.646Z,96635.00
2023-03-11T01:15:37.482Z,96624.00
2023-03-11T01:18:06.335Z,96629.00
2023-03-11T01:20:34.469Z,96636.00
2023-03-11T01:23:02.284Z,96632.00
2023-03-11T01:25:31.547Z,96638.00
2023-03-11T01:27:59.353Z,96636.00
2023-03-11T01:30:28.865Z,96648.00
2023-03-11T01:32:58.618Z,96643.00
2023-03-11T01:35:28.038Z,96653.00
2023-03-11T01:37:55.959Z,96639.00
2023-03-11T01:40:29.872Z,96648.00
2023-03-11T01:42:59.777Z,96652.00
2023-03-11T01:45:42.188Z,96657.00
2023-03-11T01:48:11.571Z,96659.00
2023-03-11T01:50:42.449Z,96657.00
2023-03-11T01:53:11.001Z,96669.00
2023-03-11T01:55:39.411Z,96664.00
2023-03-11T01:58:11.994Z,96672.00
2023-03-11T02:00:40.120Z,96670.00
2023-03-11T02:03:12.290Z,96667.00
2023-03-11T02:05:41.300Z,96665.00
2023-03-11T02:08:09.162Z,96664.00
2023-03-11T02:13:10.663Z,96674.00
2023-03-11T02:15:40.078Z,96672.00
2023-03-11T02:18:09.638Z,96674.00
2023-03-11T02:20:46.729Z,96670.00
2023-03-11T02:23:15.295Z,96666.00
2023-03-11T02:25:49.389Z,96664.00
2023-03-11T02:28:20.863Z,96663.00
2023-03-11T02:30:49.661Z,96661.00
2023-03-11T02:33:17.777Z,96673.00
2023-03-11T02:35:45.663Z,96672.00
2023-03-11T02:38:14.072Z,96662.00
2023-03-11T02:40:49.732Z,96655.00
2023-03-11T02:43:22.920Z,96664.00
2023-03-11T02:45:50.891Z,96649.00
2023-03-11T02:48:19.743Z,96666.00
2023-03-11T02:50:48.436Z,96655.00
2023-03-11T02:53:16.462Z,96682.00
2023-03-11T02:55:44.238Z,96680.00
2023-03-11T02:58:12.001Z,96688.00
2023-03-11T03:00:41.120Z,96691.00
2023-03-11T03:03:08.882Z,96691.00
2023-03-11T03:05:36.523Z,96692.00
2023-03-11T03:08:04.303Z,96698.00
2023-03-11T03:10:31.983Z,96711.00
2023-03-11T03:12:59.692Z,96728.00
2023-03-11T03:15:27.354Z,96732.00
2023-03-11T03:17:56.465Z,96729.00
2023-03-11T03:20:24.308Z,96734.00
2023-03-11T03:22:52.215Z,96727.00
2023-03-11T03:25:19.929Z,96721.00
2023-03-11T03:27:47.633Z,96732.00
2023-03-11T03:30:16.153Z,96744.00
2023-03-11T03:32:44.101Z,96740.00
2023-03-11T03:35:13.319Z,96751.00
2023-03-11T03:37:41.153Z,96734.00
2023-03-11T03:40:10.574Z,96752.00
2023-03-11T03:42:38.815Z,96747.00
2023-03-11T03:45:08.966Z,96752.00
2023-03-11T03:47:37.468Z,96748.00
2023-03-11T03:50:05.993Z,96759.00
2023-03-11T03:52:35.745Z,96757.00
2023-03-11T03:55:03.471Z,96762.00
2023-03-11T03:57:31.179Z,96758.00
2023-03-11T03:59:58.867Z,96761.00
2023-03-11T04:02:26.753Z,96762.00
2023-03-11T04:04:54.542Z,96767.00
2023-03-11T04:07:22.186Z,96770.00
2023-03-11T04:09:51.220Z,96779.00
2023-03-11T04:12:18.906Z,96779.00
2023-03-11T04:14:46.931Z,96782.00
2023-03-11T04:17:17.757Z,96796.00
2023-03-11T04:19:45.788Z,96796.00
2023-03-11T04:22:13.856Z,96788.00
2023-03-11T04:24:41.644Z,96792.00
2023-03-11T04:27:10.660Z,96813.00
2023-03-11T04:29:38.582Z,96800.00
2023-03-11T04:32:07.022Z,96800.00
2023-03-11T04:34:34.931Z,96807.00
2023-03-11T04:37:02.656Z,96811.00
2023-03-11T04:39:30.437Z,96823.00
2023-03-11T04:41:58.432Z,96811.00
2023-03-11T04:44:27.723Z,96823.00
2023-03-11T04:46:55.388Z,96821.00
2023-03-11T04:49:23.087Z,96811.00
2023-03-11T04:51:50.746Z,96807.00
2023-03-11T04:54:18.412Z,96820.00
2023-03-11T04:56:46.342Z,96828.00
2023-03-11T04:59:14.111Z,96814.00
2023-03-11T05:01:43.200Z,96822.00
2023-03-11T05:04:12.328Z,96818.00
2023-03-11T05:06:40.109Z,96818.00
2023-03-11T05:09:07.835Z,96817.00
2023-03-11T05:11:35.501Z,96824.00
2023-03-11T05:14:03.182Z,96835.00
2023-03-11T05:16:30.942Z,96835.00
2023-03-11T05:18:59.947Z,96847.00
2023-03-11T05:21:27.616Z,96854.00
2023-03-11T05:23:55.248Z,96849.00
2023-03-11T05:26:22.942Z,96854.00
2023-03-11T05:28:50.656Z,96846.00
2023-03-11T05:31:18.353Z,96846.00
2023-03-11T05:33:46.049Z,96837.00
2023-03-11T05:36:15.104Z,96849.00
2023-03-11T05:38:42.776Z,96848.00
2023-03-11T05:41:10.474Z,96850.00
2023-03-11T05:43:38.100Z,96865.00
2023-03-11T05:46:05.984Z,96865.00
2023-03-11T05:48:33.673Z,96869.00
2023-03-11T05:51:01.351Z,96869.00
2023-03-11T05:53:30.345Z,96871.00
2023-03-11T05:55:58.580Z,96877.00
2023-03-11T05:58:27.161Z,96883.00
2023-03-11T06:00:55.036Z,96883.00
2023-03-11T06:03:23.061Z,96883.00
2023-03-11T06:05:52.728Z,96887.00
2023-03-11T06:08:22.149Z,96887.00
2023-03-11T06:10:51.188Z,96892.00
2023-03-11T06:13:18.842Z,96892.00
2023-03-11T06:15:46.762Z,96905.00
2023-03-11T06:18:14.472Z,96905.00
2023-03-11T06:20:42.211Z,96905.00
2023-03-11T06:23:10.600Z,96906.00
2023-03-11T06:25:38.341Z,96912.00
2023-03-11T06:28:07.512Z,96914.00
2023-03-11T06:30:35.233Z,96919.00
2023-03-11T06:33:03.057Z,96923.00
2023-03-11T06:35:30.812Z,96934.00
2023-03-11T06:37:58.529Z,96934.00
2023-03-11T06:40:26.233Z,96938.00
2023-03-11T06:42:53.922Z,96947.00
2023-03-11T06:45:22.981Z,96951.00
2023-03-11T06:47:50.680Z,96956.00
2023-03-11T06:50:18.730Z,96947.00
2023-03-11T06:52:46.498Z,96957.00
2023-03-11T06:55:14.239Z,96974.00
2023-03-11T06:57:41.899Z,96967.00
2023-03-11T07:00:13.402Z,96956.00
2023-03-11T07:02:42.572Z,96969.00
2023-03-11T07:05:12.521Z,96973.00
2023-03-11T07:07:40.195Z,96979.00
2023-03-11T07:10:09.253Z,96980.00
2023-03-11T07:12:36.933Z,96986.00
2023-03-11T07:15:05.328Z,96997.00
2023-03-11T07:17:33.652Z,96991.00
2023-03-11T07:20:02.908Z,96998.00
2023-03-11T07:22:31.545Z,96999.00
2023-03-11T07:24:59.439Z,96992.00
2023-03-11T07:27:29.008Z,97011.00
2023-03-11T07:29:56.646Z,97010.00
2023-03-11T07:32:24.386Z,97005.00
2023-03-11T07:34:52.061Z,97007.00
2023-03-11T07:37:21.100Z,97017.00
2023-03-11T07:39:48.850Z,97018.00
2023-03-11T07:42:16.514Z,97032.00
2023-03-11T07:44:44.200Z,97032.00
2023-03-11T07:47:11.934Z,97036.00
2023-03-11T07:49:43.140Z,97045.00
2023-03-11T07:52:11.298Z,97050.00
2023-03-11T07:54:40.351Z,97048.00
2023-03-11T07:57:12.986Z,97061.00
2023-03-11T07:59:40.669Z,97051.00
2023-03-11T08:02:08.387Z,97066.00
2023-03-11T08:04:36.109Z,97066.00
2023-03-11T08:07:04.136Z,97073.00
2023-03-11T08:09:31.852Z,97071.00
2023-03-11T08:12:00.792Z,97076.00
2023-03-11T08:14:28.716Z,97068.00
2023-03-11T08:16:56.365Z,97085.00
2023-03-11T08:19:23.953Z,97086.00
2023-03-11T08:21:51.569Z,97084.00
2023-03-11T08:24:19.228Z,97089.00
2023-03-11T08:26:46.851Z,97091.00
2023-03-11T08:29:15.891Z,97099.00
2023-03-11T08:31:43.543Z,97108.00
2023-03-11T08:34:12.558Z,97113.00
2023-03-11T08:36:40.351Z,97109.00
2023-03-11T08:39:08.229Z,97118.00
2023-03-11T08:41:36.018Z,97122.00
2023-03-11T08:44:03.667Z,97116.00
2023-03-11T08:46:34.443Z,97117.00
2023-03-11T08:49:03.016Z,97119.00
2023-03-11T08:51:32.065Z,97127.00
2023-03-11T08:54:00.202Z,97122.00
2023-03-11T08:56:28.072Z,97127.00
2023-03-11T08:58:55.987Z,97137.00
2023-03-11T09:01:24.055Z,97127.00
2023-03-11T09:03:53.122Z,97136.00
2023-03-11T09:06:20.919Z,97136.00
2023-03-11T09:08:49.665Z,97134.00
2023-03-11T09:11:18.607Z,97157.00
2023-03-11T09:13:46.225Z,97143.00
2023-03-11T09:16:16.303Z,97141.00
2023-03-11T09:18:44.450Z,97144.00
2023-03-11T09:21:13.986Z,97142.00
2023-03-11T09:23:44.142Z,97151.00
2023-03-11T09:26:12.493Z,97156.00
2023-03-11T09:28:40.191Z,97153.00
2023-03-11T09:31:08.029Z,97147.00
2023-03-11T09:33:38.338Z,97154.00
2023-03-11T09:36:07.069Z,97154.00
2023-03-11T09:38:36.042Z,97156.00
2023-03-11T09:41:10.849Z,97148.00
2023-03-11T09:43:51.614Z,97157.00
2023-03-11T09:46:39.333Z,97160.00
2023-03-11T09:49:15.903Z,97164.00
2023-03-11T09:51:48.758Z,97168.00
2023-03-11T09:54:18.905Z,97176.00
2023-03-11T09:56:46.736Z,97169.00
2023-03-11T09:59:20.533Z,97174.00
2023-03-11T10:01:50.878Z,97181.00
2023-03-11T10:04:24.649Z,97180.00
2023-03-11T10:06:53.047Z,97183.00
2023-03-11T10:09:33.727Z,97193.00
2023-03-11T10:12:13.726Z,97195.00
2023-03-11T10:14:55.489Z,97191.00
2023-03-11T10:17:41.068Z,97194.00
2023-03-11T10:20:20.793Z,97196.00
2023-03-11T10:22:56.977Z,97191.00
2023-03-11T10:25:30.426Z,97192.00
2023-03-11T10:28:05.465Z,97195.00
2023-03-11T10:30:37.721Z,97198.00
2023-03-11T10:33:14.129Z,97193.00
2023-03-11T10:35:44.646Z,97202.00
2023-03-11T10:38:16.741Z,97198.00
2023-03-11T10:40:47.814Z,97195.00
2023-03-11T10:43:18.494Z,97198.00
2023-03-11T10:45:48.610Z,97196.00
2023-03-11T10:48:18.203Z,97202.00
2023-03-11T10:50:53.406Z,97197.00
2023-03-11T10:53:21.524Z,97201.00
2023-03-11T10:55:52.442Z,97200.00
2023-03-11T10:58:22.259Z,97209.00
2023-03-11T11:01:01.707Z,97205.00
2023-03-11T11:03:29.814Z,97199.00
2023-03-11T11:06:03.362Z,97199.00
2023-03-11T11:08:32.390Z,97192.00
2023-03-11T11:11:03.101Z,97207.00
2023-03-11T11:13:33.150Z,97199.00
2023-03-11T11:16:02.999Z,97201.00
2023-03-11T11:18:34.729Z,97203.00
2023-03-11T11:21:05.646Z,97195.00
2023-03-11T11:23:41.725Z,97204.00
2023-03-11T11:26:18.634Z,97206.00
2023-03-11T11:28:46.418Z,97209.00
2023-03-11T11:31:27.180Z,97220.00
2023-03-11T11:33:56.073Z,97209.00
2023-03-11T11:36:28.636Z,97207.00
2023-03-11T11:38:57.262Z,97212.00
2023-03-11T11:41:28.130Z,97207.00
2023-03-11T11:43:57.373Z,97212.00
2023-03-11T11:46:31.401Z,97214.00
2023-03-11T11:49:12.213Z,97204.00
2023-03-11T11:51:43.589Z,97204.00
2023-03-11T11:54:18.114Z,97200.00
2023-03-11T11:56:47.493Z,97208.00
2023-03-11T11:59:18.771Z,97201.00
2023-03-11T12:01:59.271Z,97208.00
2023-03-11T12:04:53.247Z,97207.00
2023-03-11T12:07:30.578Z,97199.00
2023-03-11T12:10:22.299Z,97197.00
2023-03-11T12:13:13.705Z,97196.00
2023-03-11T12:15:47.080Z,97201.00
2023-03-11T12:18:23.738Z,97200.00
2023-03-11T12:20:55.444Z,97193.00
2023-03-11T12:23:38.661Z,97201.00
2023-03-11T12:26:16.041Z,97191.00
2023-03-11T12:28:50.874Z,97202.00
2023-03-11T12:31:18.912Z,97194.00
2023-03-11T12:33:48.989Z,97200.00
2023-03-11T12:36:24.813Z,97197.00
2023-03-11T12:38:54.480Z,97208.00
2023-03-11T12:41:36.812Z,97205.00
2023-03-11T12:44:23.038Z,97209.00
2023-03-11T12:47:03.032Z,97214.00
2023-03-11T12:49:32.583Z,97211.00
2023-03-11T12:52:05.775Z,97211.00
2023-03-11T12:54:35.041Z,97215.00
2023-03-11T12:57:04.223Z,97211.00
2023-03-11T12:59:53.353Z,97208.00
2023-03-11T13:02:34.485Z,97206.00
2023-03-11T13:05:11.860Z,97200.00
2023-03-11T13:07:48.585Z,97216.00
2023-03-11T13:10:20.713Z,97205.00
2023-03-11T13:12:49.772Z,97214.00
2023-03-11T13:15:29.258Z,97217.00
2023-03-11T13:18:00.207Z,97214.00
2023-03-11T13:20:55.999Z,97220.00
2023-03-11T13:23:30.382Z,97220.00
2023-03-11T13:26:21.870Z,97234.00
2023-03-11T13:29:36.232Z,97244.00
2023-03-11T13:32:22.393Z,97239.00
2023-03-11T13:34:55.924Z,97244.00
2023-03-11T13:37:34.150Z,97244.00
2023-03-11T13:40:13.946Z,97259.00
2023-03-11T13:42:46.392Z,97256.00
2023-03-11T13:45:26.425Z,97260.00
2023-03-11T13:47:59.773Z,97267.00
2023-03-11T13:50:31.939Z,97268.00
2023-03-11T13:53:02.202Z,97269.00
2023-03-11T13:55:35.635Z,97271.00
2023-03-11T13:58:16.498Z,97274.00
2023-03-11T14:00:50.528Z,97283.00
2023-03-11T14:03:22.890Z,97276.00
2023-03-11T14:05:52.608Z,97277.00
2023-03-11T14:08:23.192Z,97281.00
2023-03-11T14:10:55.030Z,97281.00
2023-03-11T14:13:24.213Z,97277.00
2023-03-11T14:16:00.473Z,97277.00
2023-03-11T14:18:40.580Z,97276.00
2023-03-11T14:21:14.629Z,97280.00
2023-03-11T14:23:44.832Z,97286.00
2023-03-11T14:26:15.693Z,97289.00
2023-03-11T14:28:45.566Z,97281.00
2023-03-11T14:31:38.727Z,97282.00
2023-03-11T14:34:16.291Z,97284.00
2023-03-11T14:36:45.310Z,97280.00
2023-03-11T14:39:28.789Z,97280.00
2023-03-11T14:41:59.817Z,97278.00
2023-03-11T14:44:29.404Z,97280.00
2023-03-11T14:47:04.055Z,97293.00
2023-03-11T14:49:33.130Z,97292.00
2023-03-11T14:52:03.212Z,97292.00
2023-03-11T14:54:34.631Z,97295.00
2023-03-11T14:57:06.443Z,97295.00
2023-03-11T14:59:35.572Z,97294.00
2023-03-11T15:02:23.523Z,97297.00
2023-03-11T15:04:54.548Z,97299.00
2023-03-11T15:07:22.383Z,97299.00
2023-03-11T15:09:50.282Z,97307.00
2023-03-11T15:12:35.373Z,97310.00
2023-03-11T15:15:03.032Z,97312.00
2023-03-11T15:17:42.595Z,97313.00
2023-03-11T15:20:26.819Z,97321.00
2023-03-11T15:23:00.871Z,97324.00
2023-03-11T15:25:31.607Z,97320.00
2023-03-11T15:27:59.371Z,97322.00
2023-03-11T15:30:30.205Z,97317.00
2023-03-11T15:32:58.901Z,97312.00
2023-03-11T15:35:30.285Z,97314.00
2023-03-11T15:38:21.135Z,97318.00
2023-03-11T15:40:55.541Z,97321.00
2023-03-11T15:43:28.892Z,97311.00
2023-03-11T15:45:58.668Z,97312.00
2023-03-11T15:48:29.765Z,97322.00
2023-03-11T15:51:00.793Z,97329.00
2023-03-11T15:53:30.592Z,97336.00
2023-03-11T15:56:07.010Z,97328.00
2023-03-11T15:58:37.377Z,97329.00
2023-03-11T16:01:05.289Z,97336.00
2023-03-11T16:03:32.994Z,97339.00
2023-03-11T16:06:02.016Z,97349.00
2023-03-11T16:08:29.667Z,97354.00
2023-03-11T16:10:58.085Z,97348.00
2023-03-11T16:13:25.790Z,97351.00
2023-03-11T16:15:54.087Z,97354.00
2023-03-11T16:18:21.723Z,97355.00
2023-03-11T16:20:51.952Z,97354.00
2023-03-11T16:23:23.298Z,97344.00
2023-03-11T16:25:51.501Z,97342.00
2023-03-11T16:28:19.121Z,97327.00
2023-03-11T16:30:47.244Z,97335.00
2023-03-11T16:33:15.094Z,97338.00
2023-03-11T16:35:42.794Z,97346.00
2023-03-11T16:38:10.749Z,97341.00
2023-03-11T16:40:40.021Z,97339.00
2023-03-11T16:43:10.965Z,97346.00
2023-03-11T16:45:38.650Z,97348.00
2023-03-11T16:48:07.191Z,97348.00
2023-03-11T16:50:37.404Z,97357.00
2023-03-11T16:53:05.451Z,97371.00
2023-03-11T16:55:33.424Z,97375.00
2023-03-11T16:58:02.431Z,97365.00
2023-03-11T17:00:30.225Z,97369.00
2023-03-11T17:02:57.963Z,97368.00
2023-03-11T17:05:25.677Z,97376.00
2023-03-11T17:07:57.115Z,97374.00
2023-03-11T17:10:24.826Z,97377.00
2023-03-11T17:12:52.544Z,97380.00
2023-03-11T17:15:21.754Z,97382.00
2023-03-11T17:17:49.506Z,97401.00
2023-03-11T17:20:18.144Z,97406.00
2023-03-11T17:22:46.995Z,97406.00
2023-03-11T17:25:14.644Z,97422.00
2023-03-11T17:27:42.303Z,97421.00
2023-03-11T17:30:12.958Z,97414.00
2023-03-11T17:32:42.031Z,97418.00
2023-03-11T17:35:10.483Z,97426.00
2023-03-11T17:37:38.138Z,97426.00
2023-03-11T17:40:07.098Z,97427.00
2023-03-11T17:42:34.759Z,97432.00
2023-03-11T17:45:02.419Z,97432.00
2023-03-11T17:47:30.103Z,97437.00
2023-03-11T17:49:59.114Z,97449.00
2023-03-11T17:52:26.769Z,97441.00
2023-03-11T17:54:56.613Z,97448.00
2023-03-11T17:57:24.323Z,97448.00
2023-03-11T17:59:52.808Z,97454.00
2023-03-11T18:02:21.060Z,97453.00
2023-03-11T18:04:53.631Z,97458.00
2023-03-11T18:07:23.720Z,97462.00
2023-03-11T18:09:52.733Z,97464.00
2023-03-11T18:12:21.274Z,97474.00
2023-03-11T18:14:48.974Z,97470.00
2023-03-11T18:17:18.373Z,97473.00
2023-03-11T18:19:46.342Z,97474.00
2023-03-11T18:22:15.633Z,97476.00
2023-03-11T18:24:45.582Z,97479.00
2023-03-11T18:27:13.299Z,97478.00
2023-03-11T18:29:41.070Z,97489.00
2023-03-11T18:32:08.732Z,97480.00
2023-03-11T18:34:37.562Z,97479.00
2023-03-11T18:37:05.201Z,97473.00
2023-03-11T18:39:32.944Z,97470.00
2023-03-11T18:42:02.871Z,97479.00
2023-03-11T18:44:30.568Z,97479.00
2023-03-11T18:46:58.219Z,97487.00
2023-03-11T18:49:25.839Z,97500.00
2023-03-11T18:51:53.475Z,97495.00
2023-03-11T18:54:21.292Z,97494.00
2023-03-11T18:56:49.708Z,97495.00
2023-03-11T18:59:18.715Z,97494.00
2023-03-11T19:01:46.427Z,97491.00
2023-03-11T19:04:14.277Z,97499.00
2023-03-11T19:06:41.962Z,97491.00
2023-03-11T19:09:10.989Z,97491.00
2023-03-11T19:11:39.000Z,97496.00
2023-03-11T19:14:06.665Z,97494.00
2023-03-11T19:16:35.710Z,97491.00
2023-03-11T19:19:03.416Z,97493.00
2023-03-11T19:21:31.122Z,97495.00
2023-03-11T19:23:59.970Z,97494.00
2023-03-11T19:26:43.126Z,97499.00
2023-03-11T19:29:11.202Z,97500.00
2023-03-11T19:31:40.254Z,97501.00
2023-03-11T19:34:08.322Z,97496.00
2023-03-11T19:36:35.994Z,97495.00
2023-03-11T19:39:04.167Z,97497.00
2023-03-11T19:41:31.932Z,97495.00
2023-03-11T19:43:59.541Z,97502.00
2023-03-11T19:46:29.407Z,97499.00
2023-03-11T19:48:58.898Z,97498.00
2023-03-11T19:51:32.746Z,97502.00
2023-03-11T19:54:03.428Z,97494.00
2023-03-11T19:56:31.177Z,97503.00
2023-03-11T19:58:58.837Z,97502.00
2023-03-11T20:01:28.349Z,97519.00
2023-03-11T20:03:56.082Z,97511.00
2023-03-11T20:06:27.791Z,97510.00
2023-03-11T20:08:55.647Z,97519.00
2023-03-11T20:11:23.452Z,97519.00
2023-03-11T20:13:51.117Z,97519.00
2023-03-11T20:16:20.135Z,97523.00
2023-03-11T20:18:50.222Z,97520.00
2023-03-11T20:21:18.793Z,97527.00
2023-03-11T20:23:48.973Z,97529.00
2023-03-11T20:26:19.034Z,97533.00
2023-03-11T20:28:47.074Z,97541.00
2023-03-11T20:31:18.046Z,97543.00
2023-03-11T20:33:46.150Z,97539.00
2023-03-11T20:36:16.105Z,97538.00
2023-03-11T20:38:44.157Z,97539.00
2023-03-11T20:41:13.272Z,97531.00
2023-03-11T20:43:41.532Z,97534.00
2023-03-11T20:46:10.384Z,97536.00
2023-03-11T20:48:39.499Z,97541.00
2023-03-11T20:51:09.400Z,97544.00
2023-03-11T20:53:37.530Z,97543.00
2023-03-11T20:56:10.651Z,97535.00
2023-03-11T20:58:39.765Z,97532.00
2023-03-11T21:01:14.899Z,97534.00
2023-03-11T21:03:43.052Z,97537.00
2023-03-11T21:06:15.414Z,97533.00
2023-03-11T21:08:43.581Z,97535.00
2023-03-11T21:11:11.418Z,97533.00
2023-03-11T21:13:40.495Z,97534.00
2023-03-11T21:16:09.273Z,97537.00
2023-03-11T21:18:37.208Z,97548.00
2023-03-11T21:21:08.368Z,97544.00
2023-03-11T21:23:36.294Z,97551.00
2023-03-11T21:26:05.320Z,97544.00
2023-03-11T21:28:34.403Z,97543.00
2023-03-11T21:31:05.790Z,97551.00
2023-03-11T21:33:33.846Z,97548.00
2023-03-11T21:36:02.352Z,97548.00
2023-03-11T21:38:30.682Z,97552.00
2023-03-11T21:41:07.354Z,97563.00
2023-03-11T21:43:35.531Z,97558.00
2023-03-11T21:46:05.031Z,97560.00
2023-03-11T21:48:33.010Z,97563.00
2023-03-11T21:51:01.022Z,97563.00
2023-03-11T21:53:29.243Z,97562.00
2023-03-11T21:55:57.116Z,97555.00
2023-03-11T21:58:24.907Z,97560.00
2023-03-11T22:00:53.117Z,97548.00
2023-03-11T22:03:22.641Z,97552.00
2023-03-11T22:05:50.456Z,97546.00
2023-03-11T22:08:18.333Z,97551.00
2023-03-11T22:10:46.122Z,97550.00
2023-03-11T22:13:13.844Z,97555.00
2023-03-11T22:15:41.721Z,97552.00
2023-03-11T22:18:10.599Z,97551.00
2023-03-11T22:20:41.065Z,97557.00
2023-03-11T22:23:08.988Z,97549.00
2023-03-11T22:25:37.163Z,97552.00
2023-03-11T22:28:05.610Z,97563.00
2023-03-11T22:30:33.339Z,97570.00
2023-03-11T22:33:05.600Z,97577.00
2023-03-11T22:35:34.007Z,97581.00
2023-03-11T22:38:03.118Z,97580.00
2023-03-11T22:40:30.859Z,97589.00
2023-03-11T22:42:58.572Z,97582.00
2023-03-11T22:45:26.697Z,97584.00
2023-03-11T22:47:54.911Z,97571.00
2023-03-11T22:50:22.641Z,97574.00
2023-03-11T22:52:50.549Z,97570.00
2023-03-11T22:55:19.781Z,97580.00
2023-03-11T22:57:47.487Z,97575.00
2023-03-11T23:00:18.591Z,97576.00
2023-03-11T23:02:46.854Z,97576.00
2023-03-11T23:05:16.246Z,97585.00
2023-03-11T23:07:44.583Z,97586.00
2023-03-11T23:10:14.461Z,97586.00
2023-03-11T23:12:43.649Z,97592.00
2023-03-11T23:15:14.470Z,97589.00
2023-03-11T23:17:42.838Z,97589.00
2023-03-11T23:20:13.989Z,97593.00
2023-03-11T23:22:43.063Z,97592.00
2023-03-11T23:25:12.843Z,97593.00
2023-03-11T23:27:41.824Z,97597.00
2023-03-11T23:30:12.823Z,97594.00
2023-03-11T23:32:40.568Z,97589.00
2023-03-11T23:35:08.950Z,97592.00
2023-03-11T23:37:36.688Z,97585.00
2023-03-11T23:40:05.971Z,97593.00
2023-03-11T23:42:34.719Z,97593.00
2023-03-11T23:45:02.515Z,97601.00
2023-03-11T23:47:31.589Z,97600.00
2023-03-11T23:49:59.292Z,97596.00
2023-03-11T23:52:27.483Z,97601.00
2023-03-11T23:54:55.858Z,97597.00
2023-03-11T23:57:23.563Z,97601.00
2023-03-11T23:59:51.253Z,97599.00
